Arcola, Pennsylvania
Current Conditions -  °F | °C
As of 10:54 AM on Thursday 23 Oct 2014 (Local Time) from KPTW Reporting Station
Light Rain Light Rain  
Wind Chill: 52°   Ceiling: 6500
Heat Index: 52°   Visibility: 10mi
Dew Point: 45°   Wind: 16mph
Humidity: 77%   Direction: 330°NNW
Pressure: 29.82"   Gusts: NA
Location:  40.15°N, 75.46°W
Report Text: KPTW 231454Z AUTO 33014KT 10SM -RA FEW044 BKN065 OVC090 11/07 A2982 RMK AO2 RAB33 SLP095 P0000 60000 T01110072 51004
Loading
Personal Weather Stations






























Interactive Weather Map
Tropical Storm Tracking
New forecast layout! Learn more

10-Day Weather Forecast

Advertisements
Track Severe Weather on mobile